Tallahassee, FL (32301)

5:53 AM EST on February 10, 2016 (GMT -0500)
Rickards High School WeatherSTEM | | Change Station
CLOSE
Current Station
Personal Weather Station
Location: Tallahassee, FL
Elevation: 138 ft
Nearby Weather Stations
Active Advisory: Freeze Watch, Freeze Warning Active Notice: Local Storm Report

Elev 138 ft 30.41 °N, 84.26 °W | Updated 10 seconds ago

Clear
Clear
33.9 °F
Feels Like 34 °F
N
0.0
Wind Variable Wind from NE
Gusts 0.0 mph

Today
High -- | Low -- °F
--% Chance of Precip.
Yesterday
High -- | Low -- °F
Precip. -- in
Pressure 30.16 in
Visibility 10.0 miles
Clouds Clear
Windchill 34 °F
Dew Point 26 °F
Humidity 72%
Rainfall 0.00 in
Snow Depth Not available.
7:22 AM 6:20 PM
Waxing Crescent, 5% visible
METAR KTLH 100953Z AUTO 29005KT 10SM CLR M02/M06 A3015 RMK AO2 SLP211 T10221061
Pressure 30.16 in
Visibility 10.0 miles
Clouds Clear
Windchill 34 °F
Dew Point 26 °F
Humidity 72%
Rainfall 0.00 in
Snow Depth Not available.
7:22 AM 6:20 PM
Waxing Crescent, 5% visible
METAR KTLH 100953Z AUTO 29005KT 10SM CLR M02/M06 A3015 RMK AO2 SLP211 T10221061

10-Day Weather Forecast

Almanac

Astronomy

Feb. 10, 2016 Rise Set
Actual Time
Civil Twilight
Nautical Twilight
Astronomical Twilight
Moon
Length of Visible Light
Length of Day
Tomorrow will be .
, % of the Moon is Illuminated

Today's Extremes

State Highs State Lows

Community

WunderPhotos

Upload Photos

1,891,830 photos uploaded!

WunderBlog® & News

Nearby

Air Quality

  Air Quality AQ Index Pollutant
Not available.

Snow Depth

Station Depth Elevation

Earthquake Activity

City Distance Mag. Time & Date
Minimum magnitude displayed is 2.5.

Coastal Water Temperatures

Place Temperature

Stations

Nearby Weather Stations

Station Location Temp. Windchill Dew Point Humidity Wind Precip. Elev Updated Type
                   

Watches & Warnings

Freeze Watch, Freeze Warning
Issued: 3:14 AM CST Feb. 10, 2016 – National Weather Service

... Freeze warning remains in effect until 9 am EST /8 am CST/
this morning...
... Freeze watch in effect from late tonight through Thursday
morning...

The National Weather Service in Tallahassee has issued a freeze
watch... which is in effect from late tonight through Thursday
morning.

* Min temperatures this morning... 28 to 31 degrees.

* Min temperatures Thursday morning... 25 to 30 degrees.

Precautionary/preparedness actions...

A freeze warning means sub-freezing temperatures are imminent or
highly likely. Exposure to freezing temperatures may damage some
unprotected... sensitive vegetation.

A freeze watch means sub-freezing temperatures are possible.
These conditions could kill crops and other sensitive vegetation.